Time;durP1;ratioP1;P1;durP2;ratioP2;P2;SDS_P1;SDS_P2;PMS_P1;PMS_P2;Temp;Humidity;BMP_temperature;BMP_pressure;BME280_temperature;BME280_humidity;BME280_pressure;Samples;Min_cycle;Max_cycle;Signal;HPM_P1;HPM_P2
2022/01/26 00:00:30;;;;;;;6.23;1.83;;;27.60;99.90;;;;;;4934894;29;20873;-68
2022/01/26 00:05:48;;;;;;;10.10;1.93;;;28.90;99.90;;;;;;4933652;29;20592;-68
2022/01/26 00:08:16;;;;;;;8.70;2.00;;;28.30;99.90;;;;;;4934265;29;20200;-68
2022/01/26 00:10:43;;;;;;;7.80;2.17;;;27.80;99.90;;;;;;4933914;29;20256;-68
2022/01/26 00:13:11;;;;;;;5.00;1.90;;;27.50;99.90;;;;;;4935029;29;20253;-68
2022/01/26 00:15:39;;;;;;;3.20;1.77;;;27.20;99.90;;;;;;4934599;29;20180;-66
2022/01/26 00:18:06;;;;;;;7.83;2.03;;;27.10;99.90;;;;;;4933426;29;20195;-67
2022/01/26 00:20:52;;;;;;;3.63;1.97;;;27.10;99.90;;;;;;4934647;29;20191;-67
2022/01/26 00:23:47;;;;;;;5.97;2.13;;;27.00;99.90;;;;;;4915849;29;20189;-67
2022/01/26 00:26:15;;;;;;;6.13;2.33;;;27.30;99.90;;;;;;4928626;29;20241;-67
2022/01/26 00:33:06;;;;;;;6.63;1.80;;;28.50;99.90;;;;;;4933947;29;20225;-68
2022/01/26 00:39:56;;;;;;;5.67;1.90;;;29.90;99.90;;;;;;4945727;29;20187;-68
2022/01/26 00:42:26;;;;;;;6.57;1.80;;;30.20;99.90;;;;;;4951035;29;20999;-67
2022/01/26 00:44:54;;;;;;;4.23;1.83;;;29.40;99.90;;;;;;4941899;29;20588;-68
2022/01/26 00:47:21;;;;;;;5.43;1.70;;;29.00;99.90;;;;;;4934523;29;20177;-67
2022/01/26 00:49:58;;;;;;;6.80;1.97;;;28.50;99.90;;;;;;4933911;29;20225;-67
2022/01/26 00:52:37;;;;;;;6.60;1.70;;;28.00;99.90;;;;;;4934698;29;20193;-68
2022/01/26 00:55:07;;;;;;;6.00;1.77;;;27.90;99.90;;;;;;4936461;29;20208;-67
2022/01/26 00:57:34;;;;;;;4.13;1.60;;;27.90;99.90;;;;;;4953620;28;20561;-67
2022/01/26 01:00:05;;;;;;;9.43;1.87;;;27.80;99.90;;;;;;4947428;29;20195;-68
2022/01/26 01:02:33;;;;;;;6.30;2.00;;;28.00;99.90;;;;;;4938114;29;20681;-68
2022/01/26 01:05:07;;;;;;;3.80;1.77;;;28.70;99.90;;;;;;4937275;29;20232;-67
2022/01/26 01:07:38;;;;;;;5.33;2.10;;;29.30;99.90;;;;;;4937659;29;20199;-67
2022/01/26 01:10:06;;;;;;;5.00;1.40;;;30.00;99.90;;;;;;4938122;29;20584;-67
2022/01/26 01:12:40;;;;;;;7.17;1.60;;;31.00;99.90;;;;;;4937327;29;20248;-67
2022/01/26 01:15:08;;;;;;;6.50;1.70;;;30.80;99.90;;;;;;4955503;29;20219;-67
2022/01/26 01:17:41;;;;;;;4.90;1.57;;;30.90;99.90;;;;;;4952627;29;20593;-67
2022/01/26 01:31:10;;;;;;;6.23;1.60;;;28.90;99.90;;;;;;4929457;29;20224;-66
2022/01/26 01:33:43;;;;;;;3.77;1.47;;;28.90;99.90;;;;;;4936729;29;20180;-66
2022/01/26 01:36:12;;;;;;;5.20;1.70;;;28.50;99.90;;;;;;4937814;29;20394;-66
2022/01/26 01:38:42;;;;;;;6.50;1.80;;;28.50;99.90;;;;;;4937677;29;20553;-66
2022/01/26 01:41:10;;;;;;;3.47;1.67;;;28.50;99.90;;;;;;4937827;29;20190;-66
2022/01/26 01:43:38;;;;;;;4.00;1.37;;;29.00;99.90;;;;;;4937791;29;20231;-66
2022/01/26 01:46:07;;;;;;;2.27;1.07;;;29.10;99.90;;;;;;4937695;29;20646;-66
2022/01/26 01:48:34;;;;;;;7.07;1.30;;;28.90;99.90;;;;;;4937617;29;20181;-67
2022/01/26 01:51:10;;;;;;;4.03;1.40;;;28.70;99.90;;;;;;4937664;29;20220;-67
2022/01/26 01:53:41;;;;;;;4.33;1.00;;;28.50;99.90;;;;;;4936284;29;20653;-66
2022/01/26 01:56:11;;;;;;;5.77;1.57;;;28.20;99.90;;;;;;4920384;29;20275;-67
2022/01/26 01:58:39;;;;;;;3.60;1.03;;;28.20;99.90;;;;;;4934905;29;20199;-67
2022/01/26 02:01:08;;;;;;;4.77;1.07;;;28.70;99.90;;;;;;4936964;29;20181;-67
2022/01/26 02:03:36;;;;;;;6.13;1.30;;;29.80;99.90;;;;;;4935334;29;20239;-67
2022/01/26 02:06:04;;;;;;;5.67;1.10;;;30.40;99.90;;;;;;4937309;29;20664;-67
2022/01/26 02:08:32;;;;;;;6.47;1.57;;;30.80;99.90;;;;;;4937152;29;20271;-68
2022/01/26 02:10:59;;;;;;;5.20;1.40;;;30.80;99.90;;;;;;4934537;29;20268;-66
2022/01/26 02:13:33;;;;;;;3.30;0.93;;;30.80;99.90;;;;;;4935972;29;20200;-67
2022/01/26 02:52:03;;;;;;;4.80;1.50;;;30.60;99.90;;;;;;4937101;29;20728;-66
2022/01/26 02:56:44;;;;;;;3.23;1.00;;;29.90;99.90;;;;;;4936374;29;20252;-68
2022/01/26 02:59:49;;;;;;;1.40;0.70;;;29.40;99.90;;;;;;4941330;29;20176;-68
2022/01/26 03:05:16;;;;;;;3.67;1.10;;;30.10;99.90;;;;;;4925218;29;20204;-66
2022/01/26 03:07:52;;;;;;;4.63;1.20;;;29.50;99.90;;;;;;4936541;29;20550;-66
2022/01/26 03:10:36;;;;;;;5.07;1.33;;;30.00;99.90;;;;;;4935358;29;20247;-67
2022/01/26 03:13:11;;;;;;;5.10;1.27;;;30.20;99.90;;;;;;4923828;29;20176;-67
2022/01/26 03:15:44;;;;;;;9.13;1.37;;;29.70;99.90;;;;;;4936502;29;20551;-66
2022/01/26 03:20:42;;;;;;;2.70;1.10;;;29.70;99.90;;;;;;4935831;29;20181;-67
2022/01/26 03:32:02;;;;;;;3.60;1.10;;;30.10;99.90;;;;;;4936435;29;20227;-67
2022/01/26 03:34:19;;;;;;;4.33;1.30;;;30.60;99.90;;;;;;4939780;29;20188;-66
2022/01/26 03:36:52;;;;;;;1.63;0.80;;;30.00;99.90;;;;;;4952296;29;20227;-67
2022/01/26 03:39:23;;;;;;;2.43;1.00;;;29.30;99.90;;;;;;4954106;29;20211;-66
2022/01/26 03:44:21;;;;;;;3.70;0.77;;;29.00;99.90;;;;;;4935733;29;20196;-67
2022/01/26 03:46:50;;;;;;;2.70;0.80;;;29.70;99.90;;;;;;4936142;29;20205;-66
2022/01/26 03:49:18;;;;;;;4.30;1.43;;;30.50;99.90;;;;;;4935394;29;20527;-67
2022/01/26 03:51:46;;;;;;;3.67;1.40;;;29.80;99.90;;;;;;4934537;29;20260;-68
2022/01/26 03:54:17;;;;;;;6.67;1.30;;;29.20;99.90;;;;;;4933962;29;20658;-67
2022/01/26 03:56:46;;;;;;;5.23;1.20;;;28.90;99.90;;;;;;4935197;29;20554;-66
2022/01/26 03:59:14;;;;;;;6.47;1.63;;;29.40;99.90;;;;;;4935231;29;20177;-67
2022/01/26 04:01:42;;;;;;;3.03;1.00;;;30.20;99.90;;;;;;4935185;29;20267;-66
2022/01/26 04:04:10;;;;;;;3.50;0.90;;;30.30;99.90;;;;;;4935333;29;20180;-67
2022/01/26 04:06:38;;;;;;;4.90;0.90;;;30.50;99.90;;;;;;4933348;29;20196;-66
2022/01/26 04:09:09;;;;;;;2.47;0.80;;;29.90;99.90;;;;;;4934239;29;20241;-67
2022/01/26 04:11:46;;;;;;;4.97;0.90;;;29.60;99.90;;;;;;4934610;29;20686;-66
2022/01/26 04:14:27;;;;;;;5.30;0.90;;;29.80;99.90;;;;;;4936612;29;20183;-66
2022/01/26 04:16:55;;;;;;;3.60;1.10;;;29.60;99.90;;;;;;4935208;29;20618;-66
2022/01/26 04:19:23;;;;;;;3.47;0.90;;;28.90;99.90;;;;;;4936145;29;20204;-66
2022/01/26 04:22:47;;;;;;;7.13;1.40;;;29.40;99.90;;;;;;4936024;29;20180;-66
2022/01/26 04:24:48;;;;;;;2.57;0.70;;;29.90;99.90;;;;;;4938009;29;20590;-66
2022/01/26 04:27:26;;;;;;;3.20;0.93;;;29.70;99.90;;;;;;4936351;29;20188;-66
2022/01/26 04:29:54;;;;;;;5.67;1.00;;;29.40;99.90;;;;;;4936314;29;20269;-66
2022/01/26 04:32:22;;;;;;;6.70;1.30;;;29.80;99.90;;;;;;4936105;29;20184;-66
2022/01/26 04:34:51;;;;;;;5.37;1.30;;;29.90;99.90;;;;;;4935736;29;20608;-66
2022/01/26 04:39:59;;;;;;;4.53;0.83;;;29.00;99.90;;;;;;4936330;29;20278;-66
2022/01/26 04:42:42;;;;;;;2.30;0.90;;;28.60;99.90;;;;;;4934842;29;20213;-67
2022/01/26 04:45:11;;;;;;;2.57;0.97;;;29.00;99.90;;;;;;4936208;29;20539;-66
2022/01/26 04:47:40;;;;;;;3.67;0.80;;;28.90;99.90;;;;;;4936436;29;20177;-67
2022/01/26 04:50:10;;;;;;;5.20;0.97;;;28.70;99.90;;;;;;4934803;29;20263;-67
2022/01/26 04:52:39;;;;;;;2.13;1.07;;;29.10;99.90;;;;;;4919040;29;20194;-67
2022/01/26 04:55:08;;;;;;;9.43;1.57;;;29.40;99.90;;;;;;4936216;29;20191;-67
2022/01/26 04:57:36;;;;;;;4.87;1.17;;;28.90;99.90;;;;;;4934942;29;20203;-67
2022/01/26 05:00:05;;;;;;;3.23;0.97;;;29.20;99.90;;;;;;4934752;29;20188;-66
2022/01/26 05:02:34;;;;;;;4.67;1.37;;;29.70;99.90;;;;;;4934795;29;20193;-66
2022/01/26 05:05:02;;;;;;;5.47;1.30;;;29.90;99.90;;;;;;4935860;29;20177;-66
2022/01/26 05:07:30;;;;;;;4.57;0.80;;;29.90;99.90;;;;;;4935040;29;20544;-67
2022/01/26 05:09:58;;;;;;;1.70;0.63;;;29.10;99.90;;;;;;4934517;29;20694;-66
2022/01/26 05:12:26;;;;;;;6.67;1.20;;;29.20;99.90;;;;;;4934722;29;20666;-67
2022/01/26 05:14:53;;;;;;;3.97;1.00;;;29.50;99.90;;;;;;4936000;29;20180;-67
2022/01/26 05:17:23;;;;;;;6.57;1.10;;;29.60;99.90;;;;;;4936126;29;20201;-66
2022/01/26 05:19:55;;;;;;;3.63;1.03;;;29.50;99.90;;;;;;4935994;29;20188;-67
2022/01/26 05:22:23;;;;;;;3.30;0.80;;;28.90;99.90;;;;;;4934716;29;20208;-67
2022/01/26 05:24:52;;;;;;;2.67;0.87;;;28.80;99.90;;;;;;4935698;29;20232;-67
2022/01/26 05:27:21;;;;;;;10.27;1.53;;;28.50;99.90;;;;;;4934377;29;20184;-67
2022/01/26 05:29:48;;;;;;;5.77;1.30;;;28.50;99.90;;;;;;4935690;29;20235;-67
2022/01/26 05:32:16;;;;;;;2.97;1.00;;;28.00;99.90;;;;;;4934554;29;20185;-67
2022/01/26 05:34:44;;;;;;;2.43;1.30;;;28.30;99.90;;;;;;4934561;29;20192;-67
2022/01/26 05:37:12;;;;;;;5.57;0.83;;;29.00;99.90;;;;;;4935527;29;20261;-67
2022/01/26 05:39:39;;;;;;;1.77;0.70;;;28.90;99.90;;;;;;4935552;29;20177;-67
2022/01/26 05:42:07;;;;;;;3.07;1.00;;;28.90;99.90;;;;;;4935473;29;20189;-67
2022/01/26 05:44:36;;;;;;;3.57;1.13;;;28.10;99.90;;;;;;4936071;29;20789;-67
2022/01/26 05:47:08;;;;;;;3.87;0.87;;;28.10;99.90;;;;;;4939081;29;20271;-67
2022/01/26 05:49:36;;;;;;;5.07;0.93;;;28.50;99.90;;;;;;4938770;29;20299;-67
2022/01/26 05:52:04;;;;;;;4.17;0.80;;;28.90;99.90;;;;;;4937676;29;20195;-67
2022/01/26 05:54:31;;;;;;;5.63;1.50;;;29.40;99.90;;;;;;4938954;29;20188;-67
2022/01/26 05:56:59;;;;;;;6.23;1.33;;;29.40;99.90;;;;;;4937582;29;20239;-67
2022/01/26 05:59:27;;;;;;;4.17;0.70;;;28.90;99.90;;;;;;4938623;29;20177;-67
2022/01/26 06:01:56;;;;;;;6.30;1.30;;;28.90;99.90;;;;;;4939199;29;20180;-67
2022/01/26 06:04:24;;;;;;;2.57;1.37;;;29.10;99.90;;;;;;4937427;29;20777;-68
2022/01/26 06:06:52;;;;;;;3.83;1.03;;;28.70;99.90;;;;;;4938690;29;20185;-66
2022/01/26 06:09:20;;;;;;;4.00;0.60;;;28.20;99.90;;;;;;4938370;29;20528;-66
2022/01/26 06:11:48;;;;;;;4.70;1.27;;;28.50;99.90;;;;;;4937476;29;20191;-67
2022/01/26 06:14:16;;;;;;;4.13;0.93;;;28.10;99.90;;;;;;4937533;29;20223;-66
2022/01/26 06:16:43;;;;;;;4.83;0.87;;;27.60;99.90;;;;;;4937472;29;20279;-66
2022/01/26 06:19:11;;;;;;;4.37;1.10;;;27.60;99.90;;;;;;4937065;29;20670;-66
2022/01/26 06:21:39;;;;;;;4.53;1.20;;;27.50;99.90;;;;;;4938271;29;20523;-66
2022/01/26 06:24:07;;;;;;;3.80;0.80;;;27.10;99.90;;;;;;4937903;29;20239;-66
2022/01/26 06:26:36;;;;;;;6.10;1.33;;;27.70;99.90;;;;;;4921682;29;20188;-66
2022/01/26 06:29:04;;;;;;;3.17;0.80;;;27.90;99.90;;;;;;4937112;29;20189;-66
2022/01/26 06:31:34;;;;;;;2.73;0.80;;;27.30;99.90;;;;;;4937159;29;20319;-66
2022/01/26 06:34:03;;;;;;;2.80;0.90;;;27.70;99.90;;;;;;4937126;29;20587;-66
2022/01/26 06:36:31;;;;;;;4.03;1.00;;;27.70;99.90;;;;;;4938070;29;20211;-65
2022/01/26 06:38:59;;;;;;;6.23;1.07;;;27.80;99.90;;;;;;4938303;29;20531;-66
2022/01/26 06:41:27;;;;;;;5.10;1.00;;;27.90;99.90;;;;;;4938205;29;20264;-65
2022/01/26 06:44:06;;;;;;;1.47;0.90;;;27.60;99.90;;;;;;4921101;29;20184;-66
2022/01/26 06:46:55;;;;;;;8.43;1.10;;;28.00;99.90;;;;;;4938162;29;20522;-65
2022/01/26 06:51:53;;;;;;;7.33;1.20;;;26.60;99.90;;;;;;4938135;29;20188;-66
2022/01/26 06:54:21;;;;;;;3.50;1.23;;;26.50;99.90;;;;;;4937874;29;20192;-66
2022/01/26 06:56:49;;;;;;;7.37;1.23;;;26.60;99.90;;;;;;4935730;29;20203;-66
2022/01/26 06:59:17;;;;;;;4.53;1.63;;;27.00;99.90;;;;;;4936613;29;20212;-66
2022/01/26 07:01:45;;;;;;;5.40;2.27;;;27.40;99.90;;;;;;4936430;29;20188;-66
2022/01/26 07:04:13;;;;;;;2.67;0.77;;;27.90;99.90;;;;;;4937582;29;20275;-66
2022/01/26 07:06:41;;;;;;;2.73;1.00;;;27.80;99.90;;;;;;4937808;29;20172;-66
2022/01/26 07:09:08;;;;;;;7.03;2.07;;;27.40;99.90;;;;;;4937618;29;20180;-66
2022/01/26 07:11:36;;;;;;;3.83;1.20;;;27.00;99.90;;;;;;4937569;29;20228;-67
2022/01/26 07:14:08;;;;;;;6.93;1.50;;;26.70;99.90;;;;;;4936354;29;20193;-66
2022/01/26 07:22:08;;;;;;;3.43;1.07;;;27.00;99.90;;;;;;4937793;29;20203;-66
2022/01/26 07:24:36;;;;;;;6.30;1.03;;;26.90;99.90;;;;;;4936987;29;20239;-66
2022/01/26 07:27:04;;;;;;;4.93;1.10;;;27.20;99.90;;;;;;4937284;29;20168;-66
2022/01/26 07:29:32;;;;;;;3.73;1.13;;;27.30;99.90;;;;;;4937034;29;20196;-66
2022/01/26 07:32:02;;;;;;;7.03;1.07;;;27.30;99.90;;;;;;4937351;29;20638;-66
2022/01/26 07:34:30;;;;;;;4.00;1.10;;;27.20;99.90;;;;;;4935958;29;20530;-66
2022/01/26 07:37:03;;;;;;;6.30;0.90;;;27.00;99.90;;;;;;4937164;29;20636;-66
2022/01/26 07:39:44;;;;;;;2.37;0.97;;;27.20;99.90;;;;;;4937127;29;20721;-66
2022/01/26 07:42:13;;;;;;;4.13;0.83;;;27.10;99.90;;;;;;4937065;29;20191;-66
2022/01/26 07:44:41;;;;;;;3.33;0.70;;;27.10;99.90;;;;;;4936805;29;20567;-66
2022/01/26 07:47:11;;;;;;;2.30;0.90;;;26.80;99.90;;;;;;4936920;29;20264;-66
2022/01/26 07:49:38;;;;;;;6.30;1.10;;;26.70;99.90;;;;;;4935575;29;20213;-66
2022/01/26 07:52:07;;;;;;;7.47;1.10;;;27.00;99.90;;;;;;4936964;29;20177;-66
2022/01/26 07:54:35;;;;;;;6.63;1.07;;;26.50;99.90;;;;;;4936874;29;20718;-66
2022/01/26 07:57:03;;;;;;;2.93;1.40;;;26.70;99.90;;;;;;4937047;29;20188;-65
2022/01/26 07:59:31;;;;;;;5.63;1.20;;;26.80;99.90;;;;;;4936812;29;20181;-66
2022/01/26 08:01:58;;;;;;;2.90;1.00;;;26.70;99.90;;;;;;4936610;29;20195;-66
2022/01/26 08:04:26;;;;;;;5.50;1.17;;;26.60;99.90;;;;;;4936555;29;20584;-65
2022/01/26 08:06:54;;;;;;;3.40;0.70;;;26.10;99.90;;;;;;4935303;29;20185;-65
2022/01/26 08:09:22;;;;;;;6.63;1.07;;;26.50;99.90;;;;;;4935308;29;20181;-66
2022/01/26 08:11:50;;;;;;;9.13;1.07;;;26.30;99.90;;;;;;4935388;29;20557;-66
2022/01/26 08:14:18;;;;;;;7.60;1.10;;;26.00;99.90;;;;;;4935286;29;20191;-66
2022/01/26 08:16:46;;;;;;;3.37;1.03;;;26.00;99.90;;;;;;4935359;29;20215;-66
2022/01/26 08:19:16;;;;;;;4.77;0.80;;;25.80;99.90;;;;;;4935076;29;20646;-66
2022/01/26 08:21:43;;;;;;;4.33;1.20;;;25.70;99.90;;;;;;4936154;29;20184;-66
2022/01/26 08:24:15;;;;;;;5.63;1.37;;;25.60;99.90;;;;;;4936129;29;20251;-66
2022/01/26 08:26:47;;;;;;;6.57;1.10;;;25.40;99.90;;;;;;4936479;29;20184;-66
2022/01/26 08:29:26;;;;;;;6.37;1.20;;;25.10;99.90;;;;;;4935171;29;20244;-66
2022/01/26 08:31:53;;;;;;;5.33;1.10;;;25.00;99.90;;;;;;4936339;29;20196;-66
2022/01/26 08:34:21;;;;;;;6.17;1.13;;;24.80;99.90;;;;;;4935202;29;20247;-66
2022/01/26 08:36:49;;;;;;;5.30;1.10;;;24.70;99.90;;;;;;4936012;29;20634;-66
2022/01/26 08:39:17;;;;;;;5.17;1.00;;;24.50;99.90;;;;;;4934789;29;20237;-66
2022/01/26 08:41:47;;;;;;;5.60;1.10;;;24.30;99.90;;;;;;4936128;29;20244;-66
2022/01/26 08:44:15;;;;;;;3.73;0.87;;;24.10;99.90;;;;;;4935857;29;20645;-66
2022/01/26 08:46:43;;;;;;;6.17;1.00;;;24.00;99.90;;;;;;4936448;29;20199;-66
2022/01/26 08:49:11;;;;;;;7.23;0.80;;;23.80;99.90;;;;;;4936098;29;20269;-66
2022/01/26 08:51:39;;;;;;;2.80;1.00;;;23.80;99.90;;;;;;4935938;29;20226;-66
2022/01/26 08:54:08;;;;;;;5.83;1.00;;;23.70;99.90;;;;;;4936226;29;20526;-66
2022/01/26 08:56:36;;;;;;;4.30;1.50;;;23.60;99.90;;;;;;4936201;29;20185;-65
2022/01/26 08:59:04;;;;;;;3.33;1.10;;;23.60;99.90;;;;;;4936227;29;20177;-65
2022/01/26 09:01:32;;;;;;;4.23;1.40;;;23.50;99.90;;;;;;4934640;29;20192;-66
2022/01/26 09:04:00;;;;;;;5.47;1.10;;;23.50;99.90;;;;;;4935937;29;20267;-66
2022/01/26 09:06:28;;;;;;;3.50;0.83;;;23.50;99.90;;;;;;4934862;29;20604;-66
2022/01/26 09:09:03;;;;;;;5.10;1.10;;;23.40;99.90;;;;;;4936032;29;20267;-66
2022/01/26 09:11:31;;;;;;;3.60;1.17;;;23.30;99.90;;;;;;4935812;29;20294;-66
2022/01/26 09:13:59;;;;;;;9.70;1.37;;;23.20;99.90;;;;;;4935994;29;20242;-66
2022/01/26 09:16:29;;;;;;;9.63;1.50;;;23.20;99.90;;;;;;4934627;29;20212;-66
2022/01/26 09:19:03;;;;;;;5.63;1.30;;;23.10;99.90;;;;;;4934533;29;20184;-65
2022/01/26 09:21:31;;;;;;;4.80;1.10;;;23.10;99.90;;;;;;4939706;29;20189;-66
2022/01/26 09:23:59;;;;;;;8.43;1.53;;;23.00;99.90;;;;;;4936239;29;20229;-65
2022/01/26 09:26:27;;;;;;;6.03;1.13;;;23.00;99.90;;;;;;4939677;29;20197;-67
2022/01/26 09:28:55;;;;;;;6.60;1.33;;;23.00;99.90;;;;;;4939740;29;20540;-65
2022/01/26 09:31:23;;;;;;;6.17;1.30;;;23.00;99.90;;;;;;4939620;29;20212;-65
2022/01/26 09:33:50;;;;;;;5.13;1.30;;;22.90;99.90;;;;;;4939711;29;20177;-66
2022/01/26 09:36:18;;;;;;;4.53;1.33;;;22.80;99.90;;;;;;4939405;29;20551;-65
2022/01/26 09:38:46;;;;;;;7.47;1.80;;;22.80;99.90;;;;;;4939376;29;20181;-66
2022/01/26 09:41:14;;;;;;;5.50;1.50;;;22.80;99.90;;;;;;4938990;29;20559;-66
2022/01/26 09:43:44;;;;;;;4.30;1.47;;;22.70;99.90;;;;;;4938995;29;20215;-66
2022/01/26 09:46:13;;;;;;;8.00;1.57;;;22.70;99.90;;;;;;4939073;29;20184;-65
2022/01/26 09:48:42;;;;;;;7.90;1.70;;;22.70;99.90;;;;;;4938890;29;20215;-66
2022/01/26 09:51:16;;;;;;;8.00;1.30;;;22.60;99.90;;;;;;4938930;29;20224;-66
2022/01/26 09:53:44;;;;;;;2.50;0.87;;;22.60;99.90;;;;;;4939064;29;20200;-66
2022/01/26 09:56:12;;;;;;;7.50;1.27;;;22.60;99.90;;;;;;4938805;29;20199;-65
2022/01/26 09:58:39;;;;;;;10.60;1.40;;;22.60;99.90;;;;;;4938832;29;20180;-65
2022/01/26 10:01:07;;;;;;;4.70;1.13;;;22.60;99.90;;;;;;4938778;29;20555;-65
2022/01/26 10:03:35;;;;;;;8.07;1.77;;;22.50;99.90;;;;;;4938695;29;20681;-65
2022/01/26 10:06:04;;;;;;;8.43;1.10;;;22.50;99.90;;;;;;4938607;29;20697;-65
2022/01/26 10:19:08;;;;;;;4.40;1.50;;;22.40;99.90;;;;;;4938658;29;20215;-66
2022/01/26 10:21:50;;;;;;;7.63;1.60;;;22.30;99.90;;;;;;4938750;29;20525;-66
2022/01/26 10:24:24;;;;;;;5.47;1.67;;;22.30;99.90;;;;;;4938244;29;20674;-66
2022/01/26 10:26:59;;;;;;;3.40;1.10;;;22.20;99.90;;;;;;4938565;29;20243;-65
2022/01/26 10:29:29;;;;;;;5.97;1.90;;;22.20;99.90;;;;;;4938354;29;20191;-66
2022/01/26 10:31:58;;;;;;;9.87;2.73;;;22.20;99.90;;;;;;4937129;29;20192;-65
2022/01/26 10:34:25;;;;;;;8.43;2.50;;;22.10;99.90;;;;;;4938453;29;20198;-65
2022/01/26 10:36:58;;;;;;;5.17;2.43;;;22.10;99.90;;;;;;4938409;29;20662;-65
2022/01/26 10:39:46;;;;;;;8.60;2.50;;;22.10;99.90;;;;;;4938002;29;20268;-65
2022/01/26 10:42:19;;;;;;;8.00;2.10;;;22.10;99.90;;;;;;4938215;29;20177;-65
2022/01/26 10:44:59;;;;;;;6.03;2.27;;;22.00;99.90;;;;;;4938191;29;20228;-65
2022/01/26 10:47:32;;;;;;;8.47;2.50;;;22.00;99.90;;;;;;4938053;29;20277;-65
2022/01/26 10:53:11;;;;;;;8.43;2.40;;;21.90;99.90;;;;;;4902989;29;20212;-65
2022/01/26 10:55:40;;;;;;;8.87;1.83;;;21.90;99.90;;;;;;4937967;29;20181;-65
2022/01/26 10:58:08;;;;;;;5.80;1.57;;;21.80;99.90;;;;;;4937677;29;20239;-66
2022/01/26 11:00:39;;;;;;;11.53;1.53;;;21.80;99.90;;;;;;4937634;29;20196;-65
2022/01/26 11:03:07;;;;;;;8.10;1.63;;;21.80;99.90;;;;;;4937705;29;20180;-65
2022/01/26 11:05:36;;;;;;;4.93;1.90;;;21.80;99.90;;;;;;4937624;29;20579;-66
2022/01/26 11:08:04;;;;;;;6.63;1.80;;;21.70;99.90;;;;;;4937731;29;20180;-65
2022/01/26 11:10:38;;;;;;;6.40;1.40;;;21.70;99.90;;;;;;4937707;29;20212;-66
2022/01/26 11:13:06;;;;;;;6.33;1.90;;;21.60;99.90;;;;;;4937880;29;20294;-67
2022/01/26 11:15:35;;;;;;;2.70;1.00;;;21.60;99.90;;;;;;4937508;29;20173;-66
2022/01/26 11:18:12;;;;;;;4.53;1.97;;;21.50;99.90;;;;;;4937501;29;20185;-66
2022/01/26 11:20:50;;;;;;;7.30;1.90;;;21.40;99.90;;;;;;4937346;29;20218;-65
2022/01/26 11:23:35;;;;;;;4.63;2.10;;;21.40;99.90;;;;;;4937351;29;20193;-65
2022/01/26 11:26:03;;;;;;;8.03;2.20;;;21.50;99.90;;;;;;4937208;29;20315;-65
2022/01/26 11:28:31;;;;;;;7.77;2.30;;;21.40;99.90;;;;;;4937137;29;20188;-65
2022/01/26 11:31:05;;;;;;;9.07;2.70;;;21.40;99.90;;;;;;4935966;29;20585;-65
2022/01/26 11:33:36;;;;;;;7.13;2.90;;;21.40;99.90;;;;;;4937251;29;20542;-65
2022/01/26 11:36:05;;;;;;;11.47;2.80;;;21.40;99.90;;;;;;4936998;29;20188;-65
2022/01/26 11:47:30;;;;;;;8.13;2.90;;;21.30;99.90;;;;;;4934824;29;20579;-65
2022/01/26 11:50:12;;;;;;;7.77;3.20;;;21.30;99.90;;;;;;4936822;29;20221;-65
2022/01/26 11:52:41;;;;;;;7.57;3.03;;;21.20;99.90;;;;;;4936755;29;20215;-66
2022/01/26 11:55:35;;;;;;;7.83;3.90;;;21.10;99.90;;;;;;4936692;29;20184;-65
2022/01/26 11:58:10;;;;;;;9.80;3.57;;;21.00;99.90;;;;;;4936523;29;20189;-65
2022/01/26 12:00:51;;;;;;;9.13;3.60;;;21.00;99.90;;;;;;4936610;29;20199;-65
2022/01/26 12:03:28;;;;;;;4.87;3.03;;;21.00;99.90;;;;;;4936462;29;20521;-65
2022/01/26 12:05:58;;;;;;;10.87;3.50;;;21.10;99.90;;;;;;4936734;29;20237;-65
2022/01/26 12:08:31;;;;;;;10.17;3.80;;;21.10;99.90;;;;;;4936549;29;20203;-65
2022/01/26 12:10:59;;;;;;;7.23;3.60;;;21.20;99.90;;;;;;4936495;29;20215;-65
2022/01/26 12:13:30;;;;;;;7.77;2.90;;;21.40;99.90;;;;;;4936409;29;20179;-65
2022/01/26 12:16:06;;;;;;;7.60;3.53;;;21.50;99.90;;;;;;4936446;29;20647;-65
2022/01/26 12:18:43;;;;;;;8.37;3.67;;;21.50;99.90;;;;;;4936386;29;20184;-65
2022/01/26 12:36:03;;;;;;;9.47;3.87;;;21.90;99.90;;;;;;4935435;29;20242;-65
2022/01/26 12:43:45;;;;;;;9.80;3.60;;;21.90;99.90;;;;;;4935601;29;20195;-67
2022/01/26 12:46:17;;;;;;;10.00;3.90;;;22.00;99.90;;;;;;4935683;29;20188;-66
2022/01/26 12:48:55;;;;;;;10.20;3.77;;;22.00;99.90;;;;;;4935924;29;20252;-67
2022/01/26 12:51:23;;;;;;;6.50;2.97;;;22.00;99.90;;;;;;4935628;29;20212;-66
2022/01/26 12:53:56;;;;;;;5.30;3.40;;;22.00;99.90;;;;;;4934683;29;20198;-66
2022/01/26 12:56:30;;;;;;;6.53;2.83;;;22.00;99.90;;;;;;4938720;29;20181;-66
2022/01/26 12:59:13;;;;;;;8.43;3.20;;;22.00;99.90;;;;;;4939052;29;20715;-66
2022/01/26 13:01:41;;;;;;;8.70;3.30;;;22.00;99.90;;;;;;4939174;29;20278;-67
2022/01/26 13:04:13;;;;;;;7.53;3.90;;;22.00;99.90;;;;;;4939276;29;20668;-66
2022/01/26 13:06:52;;;;;;;8.03;3.07;;;21.90;99.90;;;;;;4939158;29;20184;-67
2022/01/26 13:09:26;;;;;;;5.97;2.93;;;21.90;99.90;;;;;;4938927;29;20246;-66
2022/01/26 13:11:59;;;;;;;7.67;3.67;;;21.90;99.90;;;;;;4938729;29;20563;-66
2022/01/26 13:14:45;;;;;;;12.83;3.97;;;21.90;99.90;;;;;;4938805;29;20191;-67
2022/01/26 13:22:56;;;;;;;8.90;4.67;;;21.70;99.90;;;;;;4936730;29;20567;-67
2022/01/26 13:25:58;;;;;;;6.50;3.90;;;21.60;99.90;;;;;;4935840;29;20271;-66
2022/01/26 13:28:55;;;;;;;9.13;4.73;;;21.60;99.90;;;;;;4938306;29;20208;-66
2022/01/26 13:31:59;;;;;;;10.17;3.67;;;21.60;99.90;;;;;;4935182;29;20216;-66
2022/01/26 13:34:42;;;;;;;8.17;3.30;;;21.60;99.90;;;;;;4939517;29;20564;-66
2022/01/26 13:37:30;;;;;;;10.77;3.47;;;21.50;99.90;;;;;;4938884;29;20180;-66
2022/01/26 13:45:52;;;;;;;5.67;3.03;;;21.10;99.90;;;;;;4920007;29;20202;-67
2022/01/26 13:51:12;;;;;;;8.33;3.33;;;21.00;99.90;;;;;;4926592;29;20264;-66
2022/01/26 13:54:10;;;;;;;7.07;3.50;;;20.90;99.90;;;;;;4938665;29;20271;-66
2022/01/26 13:56:52;;;;;;;11.10;4.13;;;20.90;99.90;;;;;;4936915;29;20574;-66
2022/01/26 13:59:37;;;;;;;6.07;4.00;;;21.00;99.90;;;;;;4938787;29;20188;-67
2022/01/26 14:02:05;;;;;;;12.97;4.20;;;21.00;99.90;;;;;;4938686;29;20275;-67
2022/01/26 14:04:32;;;;;;;5.10;3.20;;;21.00;99.90;;;;;;4938805;29;20381;-66
2022/01/26 14:06:59;;;;;;;8.30;3.63;;;21.10;99.90;;;;;;4938711;29;20176;-66
2022/01/26 14:09:26;;;;;;;7.07;3.70;;;21.10;99.90;;;;;;4938819;29;20189;-67
2022/01/26 14:11:54;;;;;;;8.23;3.97;;;21.10;99.90;;;;;;4936785;29;20219;-67
2022/01/26 14:14:29;;;;;;;7.77;3.60;;;21.00;99.90;;;;;;4938528;29;20206;-67
2022/01/26 14:16:58;;;;;;;5.97;3.47;;;21.00;99.90;;;;;;4938581;29;20201;-67
2022/01/26 14:19:56;;;;;;;8.70;3.47;;;20.90;99.90;;;;;;4938185;29;20186;-67
2022/01/26 14:22:59;;;;;;;6.77;3.10;;;20.90;99.90;;;;;;4937986;29;20244;-66
2022/01/26 14:25:28;;;;;;;7.97;3.60;;;20.70;99.90;;;;;;4938109;29;20267;-66
2022/01/26 14:28:03;;;;;;;10.20;3.87;;;20.60;99.90;;;;;;4938689;29;20185;-66
2022/01/26 15:30:06;;;;;;;4.70;3.03;;;19.40;99.90;;;;;;4937195;29;20197;-67
2022/01/26 15:35:51;;;;;;;6.83;3.00;;;19.30;99.90;;;;;;4937391;29;20215;-67
2022/01/26 16:07:52;;;;;;;7.47;2.87;;;19.20;99.90;;;;;;4936561;29;20186;-65
2022/01/26 16:21:08;;;;;;;5.30;2.93;;;19.20;99.90;;;;;;4935858;29;20221;-65
2022/01/26 16:26:42;;;;;;;5.43;2.97;;;19.20;99.90;;;;;;4936427;29;20208;-66
2022/01/26 17:43:51;;;;;;;4.73;2.47;;;20.00;99.90;;;;;;4920491;29;20209;-67
2022/01/26 18:16:31;;;;;;;4.10;2.13;;;20.00;99.90;;;;;;4938420;29;20177;-66
2022/01/26 18:40:53;;;;;;;6.37;2.00;;;20.00;99.90;;;;;;4937482;29;20247;-65
2022/01/26 18:51:40;;;;;;;5.63;2.37;;;19.90;99.90;;;;;;4937347;29;20263;-65
2022/01/26 18:54:08;;;;;;;5.30;2.50;;;19.90;99.90;;;;;;4937425;29;20201;-65
2022/01/26 18:56:36;;;;;;;7.27;2.43;;;19.90;99.90;;;;;;4937865;29;20184;-66
2022/01/26 18:59:05;;;;;;;15.13;2.77;;;19.90;99.90;;;;;;4937809;29;20184;-66
2022/01/26 19:01:33;;;;;;;6.27;2.43;;;19.90;99.90;;;;;;4937364;29;20227;-66
2022/01/26 19:04:01;;;;;;;5.83;2.33;;;19.90;99.90;;;;;;4937518;29;20187;-66
2022/01/26 19:06:28;;;;;;;5.20;2.30;;;19.90;99.90;;;;;;4937638;29;20187;-65
2022/01/26 19:08:56;;;;;;;8.47;2.47;;;19.90;99.90;;;;;;4937115;29;20531;-66
2022/01/26 19:11:23;;;;;;;11.10;2.60;;;19.90;99.90;;;;;;4936852;29;20221;-65
2022/01/26 19:13:51;;;;;;;5.23;2.40;;;19.80;99.90;;;;;;4937575;29;20231;-66
2022/01/26 19:21:39;;;;;;;9.07;2.77;;;19.60;99.90;;;;;;4937011;29;20646;-66
2022/01/26 19:24:34;;;;;;;3.57;1.70;;;19.50;99.90;;;;;;4936873;29;20186;-66
2022/01/26 19:27:12;;;;;;;8.03;2.03;;;19.40;99.90;;;;;;4937411;29;20198;-66
2022/01/26 19:42:19;;;;;;;7.03;2.53;;;19.20;99.90;;;;;;4896603;29;20251;-66
2022/01/26 19:44:22;;;;;;;9.13;2.60;;;19.20;99.90;;;;;;4925307;29;20651;-66
2022/01/26 19:54:16;;;;;;;4.43;2.20;;;19.30;99.90;;;;;;4936854;29;20177;-66
2022/01/26 19:56:43;;;;;;;5.13;2.33;;;19.40;99.90;;;;;;4936699;29;20259;-66